Nyk Orpheus — 7JDN — position and weather

sailwx.info

Track history (hours):
 
Tides and Currents Weather Stations Pressure Air Temp Water Temp Dewpoint Dewpoint Depression Visibility Wind Speed Wind Dir Waves Ship Positions

Nyk Orpheus

Last reported at 2017-Mar-30 01:03 UTC. Time now 2017-Mar-30 04:47 UTC.
Position N 49°06' W 005°16'.

Length 336 m; draft 14.2 m.

Type: Ship (hazmat cat A). MMSI: 432657000.

Date/timePositionNaut miles runAvg speedWind from/ knotsBaromVisibWave heightAir tempDewpointWater temp
2017-Mar-30 01:03N 49°06' W 005°16'7916.9
2017-Mar-29 20:22N 49°48' W 003°33'1214.9
2017-Mar-29 19:33N 49°54' W 003°16'1514.9
2017-Mar-29 18:33N 50°01' W 002°56'1716.3
2017-Mar-29 17:32N 50°02' W 002°30'2018.2
2017-Mar-29 16:27N 50°02' W 001°59'1920.9
2017-Mar-29 15:33N 49°58' W 001°30'2121.4
2017-Mar-29 14:34N 49°50' W 000°60'2020.3
2017-Mar-29 13:33N 49°40' W 000°33'1818.0
2017-Mar-29 12:34N 49°32' W 000°08'1110.7
2017-Mar-29 11:33N 49°28' E 000°07'1 1.4
2017-Mar-29 10:33N 49°28' E 000°09'0 0.0
2017-Mar-29 09:30N 49°28' E 000°09'0 0.0
2017-Mar-29 08:33N 49°28' E 000°09'0 0.0
2017-Mar-29 07:33N 49°28' E 000°09'0 0.0
2017-Mar-29 06:33N 49°28' E 000°09'0 0.0
2017-Mar-29 05:33N 49°28' E 000°09'0 0.0
2017-Mar-29 04:33N 49°28' E 000°09'0 0.0
2017-Mar-29 03:33N 49°28' E 000°09'0 0.0
2017-Mar-29 02:33N 49°28' E 000°09'0 0.0
2017-Mar-29 01:33N 49°28' E 000°09'0 0.0
2017-Mar-29 00:33N 49°28' E 000°09'0 0.0
2017-Mar-28 23:33N 49°28' E 000°09'0 0.0
2017-Mar-28 22:33N 49°28' E 000°09'0 0.0
2017-Mar-28 21:33N 49°28' E 000°09'0 0.0
2017-Mar-28 20:33N 49°28' E 000°09'0 0.0
2017-Mar-28 19:33N 49°28' E 000°09'0 0.0
2017-Mar-28 18:33N 49°28' E 000°09'0 0.0
2017-Mar-28 17:33N 49°28' E 000°09'0 0.0
2017-Mar-28 16:33N 49°28' E 000°09'0 0.0
2017-Mar-28 15:33N 49°28' E 000°09'0 0.0
2017-Mar-28 14:33N 49°28' E 000°09'0 0.0
2017-Mar-28 13:33N 49°28' E 000°09'0 0.0
2017-Mar-28 12:33N 49°28' E 000°09'0 0.0
2017-Mar-28 11:33N 49°28' E 000°09'0 0.0
2017-Mar-28 10:33N 49°28' E 000°09'0 0.0
2017-Mar-28 09:33N 49°28' E 000°09'0 0.0
2017-Mar-28 08:33N 49°28' E 000°09'0 0.0
2017-Mar-28 07:33N 49°28' E 000°09'0 0.0
2017-Mar-28 06:33N 49°28' E 000°09'0 0.0
2017-Mar-28 05:33N 49°28' E 000°09'0 0.0
2017-Mar-28 04:33N 49°28' E 000°09'0 0.0
2017-Mar-28 03:33N 49°28' E 000°09'0 0.0
2017-Mar-28 02:33N 49°28' E 000°09'0 0.0
2017-Mar-28 01:33N 49°28' E 000°09'0 0.0
2017-Mar-28 00:33N 49°28' E 000°09'0 0.0
2017-Mar-27 23:33N 49°28' E 000°09'0 0.0
2017-Mar-27 22:33N 49°28' E 000°09'0 0.0
2017-Mar-27 21:33N 49°28' E 000°09'0 0.0
2017-Mar-27 20:33N 49°28' E 000°09'0 0.0
2017-Mar-27 19:33N 49°28' E 000°09'0 0.0
2017-Mar-27 18:33N 49°28' E 000°09'0 0.0
2017-Mar-27 17:33N 49°28' E 000°09'0 0.0
2017-Mar-27 16:33N 49°28' E 000°09'0 0.0
2017-Mar-27 15:33N 49°28' E 000°09'0 0.0
2017-Mar-27 14:33N 49°28' E 000°09'0 0.0
2017-Mar-27 13:33N 49°28' E 000°09'0 0.0
2017-Mar-27 12:33N 49°28' E 000°09'0 0.3
2017-Mar-27 11:33N 49°27' E 000°09'1010.0
2017-Mar-27 10:33N 49°31' W 000°05'1212.1
2017-Mar-27 09:33N 49°37' W 000°22'4 4.1
2017-Mar-27 08:33N 49°39' W 000°28'2 1.6
2017-Mar-27 07:33N 49°39' W 000°30'2 1.9
2017-Mar-27 06:33N 49°40' W 000°33'2 1.6
2017-Mar-27 05:33N 49°40' W 000°35'1 1.4
2017-Mar-27 04:33N 49°41' W 000°37'8 8.0
2017-Mar-27 03:33N 49°44' W 000°49'1 0.6
2017-Mar-27 02:33N 49°44' W 000°49'3 3.0
2017-Mar-27 01:33N 49°43' W 000°45'3 2.9
2017-Mar-27 00:32N 49°42' W 000°41'2 2.4
2017-Mar-26 23:32N 49°41' W 000°37'1 1.5
2017-Mar-26 22:34N 49°41' W 000°35'1 0.7
2017-Mar-26 21:34N 49°41' W 000°34'1 0.7
2017-Mar-26 20:34N 49°42' W 000°35'1 1.3
2017-Mar-26 19:33N 49°42' W 000°37'2 2.4
2017-Mar-26 18:33N 49°44' W 000°40'1010.5
2017-Mar-26 17:33N 49°54' W 000°41'1414.1
2017-Mar-26 16:33N 50°08' W 000°44'1413.7
2017-Mar-26 15:33N 50°21' W 000°50'1313.3
2017-Mar-26 14:34N 50°34' W 000°57'10 9.7
2017-Mar-26 13:34N 50°43' W 001°01'1110.5
2017-Mar-26 12:34N 50°46' W 001°17'6 6.1
2017-Mar-26 11:34N 50°52' W 001°22'5 4.4
2017-Mar-26 10:32N 50°54' W 001°27'0 0.0
2017-Mar-26 09:32N 50°54' W 001°27'0 0.0
2017-Mar-26 08:32N 50°54' W 001°27'0 0.0
2017-Mar-26 07:20N 50°54' W 001°27'0 0.0
2017-Mar-26 06:32N 50°54' W 001°27'0 0.0
2017-Mar-26 05:32N 50°54' W 001°27'0 0.0
2017-Mar-26 04:32N 50°54' W 001°27'0 0.0
2017-Mar-26 03:32N 50°54' W 001°27'0 0.0
2017-Mar-26 02:32N 50°54' W 001°27'0 0.0
2017-Mar-26 01:32N 50°54' W 001°27'0 0.0
2017-Mar-26 00:32N 50°54' W 001°27'0 0.0
2017-Mar-25 23:32N 50°54' W 001°27'0 0.0
2017-Mar-25 22:32N 50°54' W 001°27'0 0.0
2017-Mar-25 21:26N 50°54' W 001°27'0 0.0
2017-Mar-25 20:32N 50°54' W 001°27'0 0.0
2017-Mar-25 19:32N 50°54' W 001°27'0 0.0
2017-Mar-25 18:32N 50°54' W 001°27'0 0.0
2017-Mar-25 17:32N 50°54' W 001°27'0 0.0
2017-Mar-25 16:32N 50°54' W 001°27'0 0.0
2017-Mar-25 15:32N 50°54' W 001°27'2 2.0
2017-Mar-25 14:33N 50°54' W 001°25'7 7.1
2017-Mar-25 13:33N 50°48' W 001°18'1312.5
2017-Mar-25 12:33N 50°43' W 000°60'10 9.6
2017-Mar-25 11:34N 50°34' W 000°56'1212.2
2017-Mar-25 10:34N 50°31' W 000°37'1818.1
2017-Mar-25 09:33N 50°32' W 000°09'1818.0
2017-Mar-25 08:34N 50°35' E 000°19'1817.7
2017-Mar-25 07:34N 50°41' E 000°45'1918.6
2017-Mar-25 06:34N 50°51' E 001°10'2120.5
2017-Mar-25 05:34N 51°05' E 001°34'2120.6
2017-Mar-25 04:34N 51°21' E 001°54'1919.3
2017-Mar-25 03:34N 51°37' E 002°12'1918.7
2017-Mar-25 02:33N 51°52' E 002°31'1818.0
2017-Mar-25 01:33N 52°05' E 002°50'1817.6
2017-Mar-25 00:33N 52°20' E 003°07'1817.4
2017-Mar-24 23:33N 52°33' E 003°25'1818.3
2017-Mar-24 22:33N 52°48' E 003°43'1919.3
2017-Mar-24 21:33N 53°02' E 004°06'2019.8
2017-Mar-24 20:34N 53°16' E 004°27'1919.1
2017-Mar-24 19:34N 53°31' E 004°49'1919.1
2017-Mar-24 18:34N 53°38' E 005°18'1918.5
2017-Mar-24 17:34N 53°44' E 005°48'1818.3
2017-Mar-24 16:34N 53°49' E 006°17'4219.4
2017-Mar-24 14:24N 53°60' E 007°27'2118.7
2017-Mar-24 13:18N 54°02' E 008°01'1114.8
2017-Mar-24 12:33N 53°60' E 008°20'1515.2
2017-Mar-24 11:33N 53°53' E 008°43'1312.5
2017-Mar-24 10:33N 53°52' E 009°04'10 9.8
2017-Mar-24 09:33N 53°50' E 009°20'1111.4
2017-Mar-24 08:33N 53°41' E 009°30'9 9.4
2017-Mar-24 07:33N 53°34' E 009°41'8 8.1
2017-Mar-24 06:33N 53°32' E 009°55'3 2.6
2017-Mar-24 05:31N 53°30' E 009°56'0 0.0
2017-Mar-24 04:31N 53°30' E 009°56'0 0.0
2017-Mar-24 03:31N 53°30' E 009°56'0 0.0
2017-Mar-24 02:31N 53°30' E 009°56'0 0.0
2017-Mar-24 01:31N 53°30' E 009°56'0 0.0
2017-Mar-24 00:31N 53°30' E 009°56'0 0.0
2017-Mar-23 23:31N 53°30' E 009°56'0 0.0
2017-Mar-23 22:31N 53°30' E 009°56'0 0.0
2017-Mar-23 21:31N 53°30' E 009°56'0 0.0
2017-Mar-23 20:31N 53°30' E 009°56'0 0.0
2017-Mar-23 19:31N 53°30' E 009°56'0 0.0
2017-Mar-23 18:31N 53°30' E 009°56'0 0.0
2017-Mar-23 17:31N 53°30' E 009°56'0 0.0
2017-Mar-23 16:31N 53°30' E 009°56'0 0.0
2017-Mar-23 15:31N 53°30' E 009°56'0 0.0
2017-Mar-23 14:31N 53°30' E 009°56'0 0.0
2017-Mar-23 13:31N 53°30' E 009°56'0 0.0
2017-Mar-23 12:31N 53°30' E 009°56'0 0.0
2017-Mar-23 11:31N 53°30' E 009°56'0 0.0
2017-Mar-23 10:31N 53°30' E 009°56'0 0.0
2017-Mar-23 09:31N 53°30' E 009°56'0 0.0
2017-Mar-23 08:31N 53°30' E 009°56'0 0.0
2017-Mar-23 07:31N 53°30' E 009°56'0 0.0
2017-Mar-23 06:34N 53°30' E 009°56'0 0.0
2017-Mar-23 05:33N 53°30' E 009°56'0 0.0
2017-Mar-23 04:34N 53°30' E 009°56'0 0.0
2017-Mar-23 03:31N 53°30' E 009°56'0 0.0
2017-Mar-23 02:34N 53°30' E 009°56'0 0.0
2017-Mar-23 01:34N 53°30' E 009°56'0 0.0
2017-Mar-23 00:31N 53°30' E 009°56'0 0.0
2017-Mar-22 23:31N 53°30' E 009°56'0 0.0
2017-Mar-22 22:33N 53°30' E 009°56'0 0.0
2017-Mar-22 21:34N 53°30' E 009°56'0 0.3
2017-Mar-22 20:33N 53°30' E 009°56'7 6.7
2017-Mar-22 19:33N 53°34' E 009°47'1211.7
2017-Mar-22 18:33N 53°40' E 009°30'1515.1
2017-Mar-22 17:34N 53°52' E 009°15'1413.7
2017-Mar-22 16:33N 53°50' E 008°52'1414.2
2017-Mar-22 15:33N 53°58' E 008°32'1414.1
2017-Mar-22 14:32N 53°59' E 008°08'10411.5
2017-Mar-22 05:31N 53°34' E 005°18'1514.6
2017-Mar-22 04:28N 53°28' E 004°54'1413.9
2017-Mar-22 03:30N 53°18' E 004°38'1414.8
2017-Mar-22 02:33N 53°06' E 004°26'1514.9
2017-Mar-22 01:34N 52°53' E 004°15'1414.3
2017-Mar-22 00:33N 52°41' E 004°02'1414.3
2017-Mar-21 23:33N 52°28' E 003°53'1414.4
2017-Mar-21 22:33N 52°13' E 003°53'1313.0
2017-Mar-21 21:33N 52°01' E 003°60'5 4.8
2017-Mar-21 20:33N 51°57' E 004°04'1 0.8
2017-Mar-21 19:32N 51°57' E 004°03'0 0.0
2017-Mar-21 18:32N 51°57' E 004°03'0 0.0
2017-Mar-21 17:32N 51°57' E 004°03'0 0.0
2017-Mar-21 16:32N 51°57' E 004°03'0 0.0
2017-Mar-21 15:32N 51°57' E 004°03'0 0.0
2017-Mar-21 14:32N 51°57' E 004°03'0 0.0
2017-Mar-21 13:32N 51°57' E 004°03'0 0.0
2017-Mar-21 12:32N 51°57' E 004°03'0 0.0
2017-Mar-21 11:32N 51°57' E 004°03'0 0.0
2017-Mar-21 10:32N 51°57' E 004°03'0 0.0
2017-Mar-21 09:32N 51°57' E 004°03'0 0.0
2017-Mar-21 08:32N 51°57' E 004°03'0 0.0
2017-Mar-21 07:32N 51°57' E 004°03'0 0.0
2017-Mar-21 06:32N 51°57' E 004°03'0 0.0
2017-Mar-21 05:32N 51°57' E 004°03'0 0.0
2017-Mar-21 04:32N 51°57' E 004°03'0 0.0
2017-Mar-21 03:32N 51°57' E 004°03'0 0.0
2017-Mar-21 02:32N 51°57' E 004°03'0 0.0
2017-Mar-21 01:32N 51°57' E 004°03'0 0.0
2017-Mar-21 00:32N 51°57' E 004°03'0 0.0
2017-Mar-20 23:32N 51°57' E 004°03'0 0.0
2017-Mar-20 22:32N 51°57' E 004°03'0 0.0
2017-Mar-20 21:32N 51°57' E 004°03'0 0.0
2017-Mar-20 20:32N 51°57' E 004°03'0 0.0
2017-Mar-20 19:29N 51°57' E 004°03'0 0.0
2017-Mar-20 18:32N 51°57' E 004°03'0 0.0
2017-Mar-20 17:32N 51°57' E 004°03'0 0.0
2017-Mar-20 16:32N 51°57' E 004°03'0 0.0
2017-Mar-20 15:32N 51°57' E 004°03'0 0.0
2017-Mar-20 14:32N 51°57' E 004°03'0 0.0
2017-Mar-20 13:32N 51°57' E 004°03'0 0.0
2017-Mar-20 12:32N 51°57' E 004°03'0 0.0
2017-Mar-20 11:32N 51°57' E 004°03'0 0.0
2017-Mar-20 10:32N 51°57' E 004°03'0 0.0
2017-Mar-20 09:32N 51°57' E 004°03'0 0.0
2017-Mar-20 08:32N 51°57' E 004°03'0 0.0
2017-Mar-20 07:32N 51°57' E 004°03'0 0.0
2017-Mar-20 06:32N 51°57' E 004°03'2 2.4
2017-Mar-20 05:33N 51°59' E 004°04'7 6.5
2017-Mar-20 04:33N 52°00' E 003°53'7 6.9
2017-Mar-20 03:33N 51°59' E 003°43'9 9.4
2017-Mar-20 02:33N 51°56' E 003°28'2013.6
2017-Mar-20 01:07N 51°51' E 002°57'  
Track history (hours):
 
Tides and Currents Weather Stations Pressure Air Temp Water Temp Dewpoint Dewpoint Depression Visibility Wind Speed Wind Dir Waves Ship Positions

Nyk Orpheus

Last reported at 2017-Mar-30 01:03 UTC. Time now 2017-Mar-30 04:47 UTC.
Position N 49°06' W 005°16'.

Length 336 m; draft 14.2 m.

Type: Ship (hazmat cat A). MMSI: 432657000.

Date/timePositionNaut miles runAvg speedWind from/ knotsBaromVisibWave heightAir tempDewpointWater temp
2017-Mar-30 01:03N 49°06' W 005°16'7916.9
2017-Mar-29 20:22N 49°48' W 003°33'1214.9
2017-Mar-29 19:33N 49°54' W 003°16'1514.9
2017-Mar-29 18:33N 50°01' W 002°56'1716.3
2017-Mar-29 17:32N 50°02' W 002°30'2018.2
2017-Mar-29 16:27N 50°02' W 001°59'1920.9
2017-Mar-29 15:33N 49°58' W 001°30'2121.4
2017-Mar-29 14:34N 49°50' W 000°60'2020.3
2017-Mar-29 13:33N 49°40' W 000°33'1818.0
2017-Mar-29 12:34N 49°32' W 000°08'1110.7
2017-Mar-29 11:33N 49°28' E 000°07'1 1.4
2017-Mar-29 10:33N 49°28' E 000°09'0 0.0
2017-Mar-29 09:30N 49°28' E 000°09'0 0.0
2017-Mar-29 08:33N 49°28' E 000°09'0 0.0
2017-Mar-29 07:33N 49°28' E 000°09'0 0.0
2017-Mar-29 06:33N 49°28' E 000°09'0 0.0
2017-Mar-29 05:33N 49°28' E 000°09'0 0.0
2017-Mar-29 04:33N 49°28' E 000°09'0 0.0
2017-Mar-29 03:33N 49°28' E 000°09'0 0.0
2017-Mar-29 02:33N 49°28' E 000°09'0 0.0
2017-Mar-29 01:33N 49°28' E 000°09'0 0.0
2017-Mar-29 00:33N 49°28' E 000°09'0 0.0
2017-Mar-28 23:33N 49°28' E 000°09'0 0.0
2017-Mar-28 22:33N 49°28' E 000°09'0 0.0
2017-Mar-28 21:33N 49°28' E 000°09'0 0.0
2017-Mar-28 20:33N 49°28' E 000°09'0 0.0
2017-Mar-28 19:33N 49°28' E 000°09'0 0.0
2017-Mar-28 18:33N 49°28' E 000°09'0 0.0
2017-Mar-28 17:33N 49°28' E 000°09'0 0.0
2017-Mar-28 16:33N 49°28' E 000°09'0 0.0
2017-Mar-28 15:33N 49°28' E 000°09'0 0.0
2017-Mar-28 14:33N 49°28' E 000°09'0 0.0
2017-Mar-28 13:33N 49°28' E 000°09'0 0.0
2017-Mar-28 12:33N 49°28' E 000°09'0 0.0
2017-Mar-28 11:33N 49°28' E 000°09'0 0.0
2017-Mar-28 10:33N 49°28' E 000°09'0 0.0
2017-Mar-28 09:33N 49°28' E 000°09'0 0.0
2017-Mar-28 08:33N 49°28' E 000°09'0 0.0
2017-Mar-28 07:33N 49°28' E 000°09'0 0.0
2017-Mar-28 06:33N 49°28' E 000°09'0 0.0
2017-Mar-28 05:33N 49°28' E 000°09'0 0.0
2017-Mar-28 04:33N 49°28' E 000°09'0 0.0
2017-Mar-28 03:33N 49°28' E 000°09'0 0.0
2017-Mar-28 02:33N 49°28' E 000°09'0 0.0
2017-Mar-28 01:33N 49°28' E 000°09'0 0.0
2017-Mar-28 00:33N 49°28' E 000°09'0 0.0
2017-Mar-27 23:33N 49°28' E 000°09'0 0.0
2017-Mar-27 22:33N 49°28' E 000°09'0 0.0
2017-Mar-27 21:33N 49°28' E 000°09'0 0.0
2017-Mar-27 20:33N 49°28' E 000°09'0 0.0
2017-Mar-27 19:33N 49°28' E 000°09'0 0.0
2017-Mar-27 18:33N 49°28' E 000°09'0 0.0
2017-Mar-27 17:33N 49°28' E 000°09'0 0.0
2017-Mar-27 16:33N 49°28' E 000°09'0 0.0
2017-Mar-27 15:33N 49°28' E 000°09'0 0.0
2017-Mar-27 14:33N 49°28' E 000°09'0 0.0
2017-Mar-27 13:33N 49°28' E 000°09'0 0.0
2017-Mar-27 12:33N 49°28' E 000°09'0 0.3
2017-Mar-27 11:33N 49°27' E 000°09'1010.0
2017-Mar-27 10:33N 49°31' W 000°05'1212.1
2017-Mar-27 09:33N 49°37' W 000°22'4 4.1
2017-Mar-27 08:33N 49°39' W 000°28'2 1.6
2017-Mar-27 07:33N 49°39' W 000°30'2 1.9
2017-Mar-27 06:33N 49°40' W 000°33'2 1.6
2017-Mar-27 05:33N 49°40' W 000°35'1 1.4
2017-Mar-27 04:33N 49°41' W 000°37'8 8.0
2017-Mar-27 03:33N 49°44' W 000°49'1 0.6
2017-Mar-27 02:33N 49°44' W 000°49'3 3.0
2017-Mar-27 01:33N 49°43' W 000°45'3 2.9
2017-Mar-27 00:32N 49°42' W 000°41'2 2.4
2017-Mar-26 23:32N 49°41' W 000°37'1 1.5
2017-Mar-26 22:34N 49°41' W 000°35'1 0.7
2017-Mar-26 21:34N 49°41' W 000°34'1 0.7
2017-Mar-26 20:34N 49°42' W 000°35'1 1.3
2017-Mar-26 19:33N 49°42' W 000°37'2 2.4
2017-Mar-26 18:33N 49°44' W 000°40'1010.5
2017-Mar-26 17:33N 49°54' W 000°41'1414.1
2017-Mar-26 16:33N 50°08' W 000°44'1413.7
2017-Mar-26 15:33N 50°21' W 000°50'1313.3
2017-Mar-26 14:34N 50°34' W 000°57'10 9.7
2017-Mar-26 13:34N 50°43' W 001°01'1110.5
2017-Mar-26 12:34N 50°46' W 001°17'6 6.1
2017-Mar-26 11:34N 50°52' W 001°22'5 4.4
2017-Mar-26 10:32N 50°54' W 001°27'0 0.0
2017-Mar-26 09:32N 50°54' W 001°27'0 0.0
2017-Mar-26 08:32N 50°54' W 001°27'0 0.0
2017-Mar-26 07:20N 50°54' W 001°27'0 0.0
2017-Mar-26 06:32N 50°54' W 001°27'0 0.0
2017-Mar-26 05:32N 50°54' W 001°27'0 0.0
2017-Mar-26 04:32N 50°54' W 001°27'0 0.0
2017-Mar-26 03:32N 50°54' W 001°27'0 0.0
2017-Mar-26 02:32N 50°54' W 001°27'0 0.0
2017-Mar-26 01:32N 50°54' W 001°27'0 0.0
2017-Mar-26 00:32N 50°54' W 001°27'0 0.0
2017-Mar-25 23:32N 50°54' W 001°27'0 0.0
2017-Mar-25 22:32N 50°54' W 001°27'0 0.0
2017-Mar-25 21:26N 50°54' W 001°27'0 0.0
2017-Mar-25 20:32N 50°54' W 001°27'0 0.0
2017-Mar-25 19:32N 50°54' W 001°27'0 0.0
2017-Mar-25 18:32N 50°54' W 001°27'0 0.0
2017-Mar-25 17:32N 50°54' W 001°27'0 0.0
2017-Mar-25 16:32N 50°54' W 001°27'0 0.0
2017-Mar-25 15:32N 50°54' W 001°27'2 2.0
2017-Mar-25 14:33N 50°54' W 001°25'7 7.1
2017-Mar-25 13:33N 50°48' W 001°18'1312.5
2017-Mar-25 12:33N 50°43' W 000°60'10 9.6
2017-Mar-25 11:34N 50°34' W 000°56'1212.2
2017-Mar-25 10:34N 50°31' W 000°37'1818.1
2017-Mar-25 09:33N 50°32' W 000°09'1818.0
2017-Mar-25 08:34N 50°35' E 000°19'1817.7
2017-Mar-25 07:34N 50°41' E 000°45'1918.6
2017-Mar-25 06:34N 50°51' E 001°10'2120.5
2017-Mar-25 05:34N 51°05' E 001°34'2120.6
2017-Mar-25 04:34N 51°21' E 001°54'1919.3
2017-Mar-25 03:34N 51°37' E 002°12'1918.7
2017-Mar-25 02:33N 51°52' E 002°31'1818.0
2017-Mar-25 01:33N 52°05' E 002°50'1817.6
2017-Mar-25 00:33N 52°20' E 003°07'1817.4
2017-Mar-24 23:33N 52°33' E 003°25'1818.3
2017-Mar-24 22:33N 52°48' E 003°43'1919.3
2017-Mar-24 21:33N 53°02' E 004°06'2019.8
2017-Mar-24 20:34N 53°16' E 004°27'1919.1
2017-Mar-24 19:34N 53°31' E 004°49'1919.1
2017-Mar-24 18:34N 53°38' E 005°18'1918.5
2017-Mar-24 17:34N 53°44' E 005°48'1818.3
2017-Mar-24 16:34N 53°49' E 006°17'4219.4
2017-Mar-24 14:24N 53°60' E 007°27'2118.7
2017-Mar-24 13:18N 54°02' E 008°01'1114.8
2017-Mar-24 12:33N 53°60' E 008°20'1515.2
2017-Mar-24 11:33N 53°53' E 008°43'1312.5
2017-Mar-24 10:33N 53°52' E 009°04'10 9.8
2017-Mar-24 09:33N 53°50' E 009°20'1111.4
2017-Mar-24 08:33N 53°41' E 009°30'9 9.4
2017-Mar-24 07:33N 53°34' E 009°41'8 8.1
2017-Mar-24 06:33N 53°32' E 009°55'3 2.6
2017-Mar-24 05:31N 53°30' E 009°56'0 0.0
2017-Mar-24 04:31N 53°30' E 009°56'0 0.0
2017-Mar-24 03:31N 53°30' E 009°56'0 0.0
2017-Mar-24 02:31N 53°30' E 009°56'0 0.0
2017-Mar-24 01:31N 53°30' E 009°56'0 0.0
2017-Mar-24 00:31N 53°30' E 009°56'0 0.0
2017-Mar-23 23:31N 53°30' E 009°56'0 0.0
2017-Mar-23 22:31N 53°30' E 009°56'0 0.0
2017-Mar-23 21:31N 53°30' E 009°56'0 0.0
2017-Mar-23 20:31N 53°30' E 009°56'0 0.0
2017-Mar-23 19:31N 53°30' E 009°56'0 0.0
2017-Mar-23 18:31N 53°30' E 009°56'0 0.0
2017-Mar-23 17:31N 53°30' E 009°56'0 0.0
2017-Mar-23 16:31N 53°30' E 009°56'0 0.0
2017-Mar-23 15:31N 53°30' E 009°56'0 0.0
2017-Mar-23 14:31N 53°30' E 009°56'0 0.0
2017-Mar-23 13:31N 53°30' E 009°56'0 0.0
2017-Mar-23 12:31N 53°30' E 009°56'0 0.0
2017-Mar-23 11:31N 53°30' E 009°56'0 0.0
2017-Mar-23 10:31N 53°30' E 009°56'0 0.0
2017-Mar-23 09:31N 53°30' E 009°56'0 0.0
2017-Mar-23 08:31N 53°30' E 009°56'0 0.0
2017-Mar-23 07:31N 53°30' E 009°56'0 0.0
2017-Mar-23 06:34N 53°30' E 009°56'0 0.0
2017-Mar-23 05:33N 53°30' E 009°56'0 0.0
2017-Mar-23 04:34N 53°30' E 009°56'0 0.0
2017-Mar-23 03:31N 53°30' E 009°56'0 0.0
2017-Mar-23 02:34N 53°30' E 009°56'0 0.0
2017-Mar-23 01:34N 53°30' E 009°56'0 0.0
2017-Mar-23 00:31N 53°30' E 009°56'0 0.0
2017-Mar-22 23:31N 53°30' E 009°56'0 0.0
2017-Mar-22 22:33N 53°30' E 009°56'0 0.0
2017-Mar-22 21:34N 53°30' E 009°56'0 0.3
2017-Mar-22 20:33N 53°30' E 009°56'7 6.7
2017-Mar-22 19:33N 53°34' E 009°47'1211.7
2017-Mar-22 18:33N 53°40' E 009°30'1515.1
2017-Mar-22 17:34N 53°52' E 009°15'1413.7
2017-Mar-22 16:33N 53°50' E 008°52'1414.2
2017-Mar-22 15:33N 53°58' E 008°32'1414.1
2017-Mar-22 14:32N 53°59' E 008°08'10411.5
2017-Mar-22 05:31N 53°34' E 005°18'1514.6
2017-Mar-22 04:28N 53°28' E 004°54'1413.9
2017-Mar-22 03:30N 53°18' E 004°38'1414.8
2017-Mar-22 02:33N 53°06' E 004°26'1514.9
2017-Mar-22 01:34N 52°53' E 004°15'1414.3
2017-Mar-22 00:33N 52°41' E 004°02'1414.3
2017-Mar-21 23:33N 52°28' E 003°53'1414.4
2017-Mar-21 22:33N 52°13' E 003°53'1313.0
2017-Mar-21 21:33N 52°01' E 003°60'5 4.8
2017-Mar-21 20:33N 51°57' E 004°04'1 0.8
2017-Mar-21 19:32N 51°57' E 004°03'0 0.0
2017-Mar-21 18:32N 51°57' E 004°03'0 0.0
2017-Mar-21 17:32N 51°57' E 004°03'0 0.0
2017-Mar-21 16:32N 51°57' E 004°03'0 0.0
2017-Mar-21 15:32N 51°57' E 004°03'0 0.0
2017-Mar-21 14:32N 51°57' E 004°03'0 0.0
2017-Mar-21 13:32N 51°57' E 004°03'0 0.0
2017-Mar-21 12:32N 51°57' E 004°03'0 0.0
2017-Mar-21 11:32N 51°57' E 004°03'0 0.0
2017-Mar-21 10:32N 51°57' E 004°03'0 0.0
2017-Mar-21 09:32N 51°57' E 004°03'0 0.0
2017-Mar-21 08:32N 51°57' E 004°03'0 0.0
2017-Mar-21 07:32N 51°57' E 004°03'0 0.0
2017-Mar-21 06:32N 51°57' E 004°03'0 0.0
2017-Mar-21 05:32N 51°57' E 004°03'0 0.0
2017-Mar-21 04:32N 51°57' E 004°03'0 0.0
2017-Mar-21 03:32N 51°57' E 004°03'0 0.0
2017-Mar-21 02:32N 51°57' E 004°03'0 0.0
2017-Mar-21 01:32N 51°57' E 004°03'0 0.0
2017-Mar-21 00:32N 51°57' E 004°03'0 0.0
2017-Mar-20 23:32N 51°57' E 004°03'0 0.0
2017-Mar-20 22:32N 51°57' E 004°03'0 0.0
2017-Mar-20 21:32N 51°57' E 004°03'0 0.0
2017-Mar-20 20:32N 51°57' E 004°03'0 0.0
2017-Mar-20 19:29N 51°57' E 004°03'0 0.0
2017-Mar-20 18:32N 51°57' E 004°03'0 0.0
2017-Mar-20 17:32N 51°57' E 004°03'0 0.0
2017-Mar-20 16:32N 51°57' E 004°03'0 0.0
2017-Mar-20 15:32N 51°57' E 004°03'0 0.0
2017-Mar-20 14:32N 51°57' E 004°03'0 0.0
2017-Mar-20 13:32N 51°57' E 004°03'0 0.0
2017-Mar-20 12:32N 51°57' E 004°03'0 0.0
2017-Mar-20 11:32N 51°57' E 004°03'0 0.0
2017-Mar-20 10:32N 51°57' E 004°03'0 0.0
2017-Mar-20 09:32N 51°57' E 004°03'0 0.0
2017-Mar-20 08:32N 51°57' E 004°03'0 0.0
2017-Mar-20 07:32N 51°57' E 004°03'0 0.0
2017-Mar-20 06:32N 51°57' E 004°03'2 2.4
2017-Mar-20 05:33N 51°59' E 004°04'7 6.5
2017-Mar-20 04:33N 52°00' E 003°53'7 6.9
2017-Mar-20 03:33N 51°59' E 003°43'9 9.4
2017-Mar-20 02:33N 51°56' E 003°28'2013.6
2017-Mar-20 01:07N 51°51' E 002°57'  

Dump ship's entire track history